PAED METAR and TAF weather

Enter ICAO airport designator
Station Type Date Time Source
PAED METAR 2021/05/11 22:56 UTC NOAA

PAED 112256Z 32006KT 10SM VCSH SCT047 BKN090 12/02 A2996 RMK AO2A SLP142 T01230024 $


Station Type Date Time Source
PAED Decoded METAR 2021/05/11 22:56 UTC NOAA

Anchorage, Elmendorf Air Force Base, AK, United States (PAED) 61-15-11N 149-47-38W 59M
May 11, 2021 - 06:56 PM EDT / 2021.05.11 2256 UTC
Wind: from the NW (320 degrees) at 7 MPH (6 KT):0
Visibility: 10 mile(s):0
Sky conditions: mostly cloudy
Weather: showers in the vicinity
Temperature: 54.1 F (12.3 C)
Dew Point: 36.3 F (2.4 C)
Relative Humidity: 50%
Pressure (altimeter): 29.96 in. Hg (1014 hPa)
ob: PAED 112256Z 32006KT 10SM VCSH SCT047 BKN090 12/02 A2996 RMK AO2A SLP142 T01230024
cycle: 23

Station Type Date Time Source
PAED TAF 2021/05/11 18:03 UTC NOAA

TAF PAED 111800Z 1118/1300 03009KT 9999 VCSH FEW030 SCT060 BKN100 QNH2995INS
TEMPO 1123/1205 9000 -SHRA BKN030 BKN100 620353
BECMG 1205/1206 15009KT 9999 NSW SCT060 BKN110 QNH3005INS TX13/1200Z TN04/1213Z

Example: see airport list